Time;durP1;ratioP1;P1;durP2;ratioP2;P2;SDS_P1;SDS_P2;PMS_P1;PMS_P2;Temp;Humidity;BMP_temperature;BMP_pressure;BME280_temperature;BME280_humidity;BME280_pressure;Samples;Min_cycle;Max_cycle;Signal;HPM_P1;HPM_P2
2021/07/13 00:02:25;;;;;;;9.20;8.40;;;20.60;99.90;;;;;;6302586;22;20206;-77
2021/07/13 00:04:53;;;;;;;8.20;7.60;;;20.60;99.90;;;;;;6279611;22;20184;-77
2021/07/13 00:07:20;;;;;;;7.47;6.97;;;20.50;99.90;;;;;;6306453;22;20958;-77
2021/07/13 00:09:47;;;;;;;7.83;7.20;;;20.50;99.90;;;;;;6306480;22;20244;-77
2021/07/13 00:12:14;;;;;;;7.73;7.13;;;20.50;99.90;;;;;;6306708;22;20187;-77
2021/07/13 00:14:40;;;;;;;7.67;7.07;;;20.50;99.90;;;;;;6306743;22;20216;-77
2021/07/13 00:17:07;;;;;;;7.30;6.80;;;20.50;99.90;;;;;;6305574;22;20170;-76
2021/07/13 00:19:35;;;;;;;7.07;6.67;;;20.40;99.90;;;;;;6306618;22;20168;-77
2021/07/13 00:22:04;;;;;;;7.63;6.63;;;20.40;99.90;;;;;;6306331;22;20244;-76
2021/07/13 00:24:31;;;;;;;7.77;7.07;;;20.40;99.90;;;;;;6278983;22;20194;-77
2021/07/13 00:26:58;;;;;;;7.33;6.87;;;20.30;99.90;;;;;;6278538;22;20180;-77
2021/07/13 00:29:25;;;;;;;7.53;7.03;;;20.30;99.90;;;;;;6279260;22;20195;-77
2021/07/13 00:31:52;;;;;;;8.17;7.67;;;20.20;99.90;;;;;;6306504;22;20571;-77
2021/07/13 00:34:19;;;;;;;7.47;6.97;;;20.20;99.90;;;;;;6306533;22;20166;-77
2021/07/13 00:36:45;;;;;;;7.87;7.17;;;20.10;99.90;;;;;;6306475;22;20171;-77
2021/07/13 00:39:14;;;;;;;7.80;7.17;;;20.10;99.90;;;;;;6306148;22;20174;-77
2021/07/13 00:41:41;;;;;;;7.10;6.60;;;20.00;99.90;;;;;;6278639;22;20232;-77
2021/07/13 00:44:08;;;;;;;7.33;6.83;;;20.00;99.90;;;;;;6278896;22;20188;-77
2021/07/13 00:46:44;;;;;;;7.10;6.60;;;19.90;99.90;;;;;;6306176;22;20166;-77
2021/07/13 00:49:13;;;;;;;7.23;6.73;;;19.90;99.90;;;;;;6278683;22;20199;-77
2021/07/13 00:51:41;;;;;;;7.63;7.13;;;19.80;99.90;;;;;;6306198;22;20240;-77
2021/07/13 00:54:09;;;;;;;7.10;6.60;;;19.80;99.90;;;;;;6278885;22;20170;-77
2021/07/13 00:56:38;;;;;;;7.73;7.13;;;19.80;99.90;;;;;;6306405;22;20675;-77
2021/07/13 00:59:05;;;;;;;7.37;6.87;;;19.80;99.90;;;;;;6278433;22;20220;-77
2021/07/13 01:01:33;;;;;;;7.80;7.00;;;19.80;99.90;;;;;;6305822;22;20664;-77
2021/07/13 01:04:03;;;;;;;6.83;6.33;;;19.80;99.90;;;;;;6306051;22;20188;-77
2021/07/13 01:06:36;;;;;;;6.90;6.50;;;19.70;99.90;;;;;;6306209;22;20236;-77
2021/07/13 01:09:08;;;;;;;7.10;6.60;;;19.70;99.90;;;;;;6305999;22;20153;-77
2021/07/13 01:11:47;;;;;;;7.27;6.77;;;19.70;99.90;;;;;;6305885;22;20185;-77
2021/07/13 01:14:34;;;;;;;7.23;6.73;;;19.70;99.90;;;;;;6278831;22;20517;-77
2021/07/13 01:17:05;;;;;;;7.07;6.57;;;19.70;99.90;;;;;;6305726;22;20167;-77
2021/07/13 01:19:53;;;;;;;7.50;7.00;;;19.70;99.90;;;;;;6306096;22;20158;-77
2021/07/13 01:22:23;;;;;;;7.27;6.60;;;19.70;99.90;;;;;;6306282;22;20261;-77
2021/07/13 01:25:04;;;;;;;7.10;6.60;;;19.70;99.90;;;;;;6278830;22;20705;-77
2021/07/13 01:27:52;;;;;;;7.37;6.70;;;19.60;99.90;;;;;;6305944;22;20154;-77
2021/07/13 01:30:22;;;;;;;7.20;6.70;;;19.60;99.90;;;;;;6306125;22;20157;-77
2021/07/13 01:32:54;;;;;;;7.33;6.73;;;19.70;99.90;;;;;;6306248;22;20171;-78
2021/07/13 01:35:25;;;;;;;7.50;6.80;;;19.60;99.90;;;;;;6278818;22;20180;-76
2021/07/13 01:37:54;;;;;;;7.53;6.93;;;19.70;99.90;;;;;;6305687;22;20157;-77
2021/07/13 01:40:24;;;;;;;7.37;6.87;;;19.70;99.90;;;;;;6280825;22;20628;-77
2021/07/13 01:42:53;;;;;;;7.87;7.33;;;19.70;99.90;;;;;;6308133;22;20288;-77
2021/07/13 01:45:20;;;;;;;7.40;6.90;;;19.70;99.90;;;;;;6307805;22;20169;-77
2021/07/13 01:47:48;;;;;;;7.70;7.20;;;19.70;99.90;;;;;;6307746;22;20496;-76
2021/07/13 01:50:15;;;;;;;8.57;7.77;;;19.60;99.90;;;;;;6279774;22;20181;-77
2021/07/13 01:52:44;;;;;;;7.67;7.13;;;19.60;99.90;;;;;;6280352;22;20535;-77
2021/07/13 01:55:13;;;;;;;7.87;7.17;;;19.50;99.90;;;;;;6280463;22;20176;-77
2021/07/13 01:57:41;;;;;;;8.20;7.50;;;19.50;99.90;;;;;;6307207;22;20572;-77
2021/07/13 02:00:11;;;;;;;8.43;7.63;;;19.40;99.90;;;;;;6307755;22;20548;-77
2021/07/13 02:02:44;;;;;;;8.43;7.80;;;19.40;99.90;;;;;;6307533;22;20173;-77
2021/07/13 02:05:12;;;;;;;10.20;9.60;;;19.30;99.90;;;;;;6280335;22;20166;-77
2021/07/13 02:07:42;;;;;;;8.97;7.93;;;19.30;99.90;;;;;;6307286;22;20169;-77
2021/07/13 02:10:11;;;;;;;4.93;4.43;;;19.20;99.90;;;;;;6307745;22;20169;-77
2021/07/13 02:12:40;;;;;;;8.50;7.90;;;19.10;99.90;;;;;;6307593;22;20169;-77
2021/07/13 02:15:10;;;;;;;8.20;7.50;;;19.00;99.90;;;;;;6307460;22;20232;-77
2021/07/13 02:17:36;;;;;;;9.10;8.20;;;18.90;99.90;;;;;;6306799;22;20631;-77
2021/07/13 02:20:07;;;;;;;9.00;8.20;;;18.90;99.90;;;;;;6307380;22;20210;-77
2021/07/13 02:22:34;;;;;;;8.80;8.03;;;18.80;99.90;;;;;;6307347;22;20153;-77
2021/07/13 02:25:01;;;;;;;8.83;7.93;;;18.80;99.90;;;;;;6307053;22;20177;-77
2021/07/13 02:27:31;;;;;;;14.00;9.03;;;18.80;99.90;;;;;;6306993;22;20166;-77
2021/07/13 02:29:59;;;;;;;10.70;9.80;;;18.70;99.90;;;;;;6279967;22;20211;-77
2021/07/13 02:32:32;;;;;;;10.23;9.33;;;18.70;99.90;;;;;;6307880;22;20193;-76
2021/07/13 02:35:00;;;;;;;9.50;8.80;;;18.60;99.90;;;;;;6306805;22;20177;-77
2021/07/13 02:37:29;;;;;;;9.40;8.80;;;18.60;99.90;;;;;;6306702;22;20536;-76
2021/07/13 02:39:56;;;;;;;9.90;9.20;;;18.60;99.90;;;;;;6307206;22;20177;-77
2021/07/13 02:42:23;;;;;;;9.70;9.00;;;18.70;99.90;;;;;;6307661;22;20188;-81
2021/07/13 02:44:51;;;;;;;10.60;9.73;;;18.60;99.90;;;;;;6279985;22;20200;-80
2021/07/13 02:47:18;;;;;;;9.97;9.37;;;18.60;99.90;;;;;;6279876;22;20180;-80
2021/07/13 02:49:50;;;;;;;10.93;10.13;;;18.60;99.90;;;;;;6306977;22;20173;-81
2021/07/13 02:52:21;;;;;;;11.10;10.30;;;18.50;99.90;;;;;;6306971;22;20188;-83
2021/07/13 02:54:51;;;;;;;9.93;9.23;;;18.50;99.90;;;;;;6307109;22;20592;-82
2021/07/13 02:57:21;;;;;;;9.60;8.90;;;18.40;99.90;;;;;;6306723;22;20165;-80
2021/07/13 02:59:48;;;;;;;9.57;8.90;;;18.40;99.90;;;;;;6306973;22;20502;-80
2021/07/13 03:02:15;;;;;;;6.87;6.17;;;18.30;99.90;;;;;;6277865;22;20214;-80
2021/07/13 03:04:43;;;;;;;8.17;7.67;;;18.30;99.90;;;;;;6279317;22;20262;-81
2021/07/13 03:07:12;;;;;;;3.63;3.33;;;18.30;99.90;;;;;;6306427;22;20176;-81
2021/07/13 03:09:40;;;;;;;3.93;3.20;;;18.30;99.90;;;;;;6279467;22;20183;-81
2021/07/13 03:12:08;;;;;;;5.83;3.80;;;18.20;99.90;;;;;;6307081;22;20183;-81
2021/07/13 03:14:37;;;;;;;4.63;3.20;;;18.30;99.90;;;;;;6279675;22;20171;-79
2021/07/13 03:17:05;;;;;;;4.00;3.40;;;18.20;99.90;;;;;;6306838;22;20738;-79
2021/07/13 03:19:32;;;;;;;4.27;3.17;;;18.20;99.90;;;;;;6307474;22;20167;-81
2021/07/13 03:22:00;;;;;;;6.30;3.87;;;18.20;99.90;;;;;;6307114;22;20194;-79
2021/07/13 03:24:30;;;;;;;5.73;4.20;;;18.20;99.90;;;;;;6278772;22;20194;-77
2021/07/13 03:26:58;;;;;;;8.10;7.30;;;18.10;99.90;;;;;;6305634;22;20168;-76
2021/07/13 03:29:27;;;;;;;9.93;9.10;;;18.10;99.90;;;;;;6306082;22;20168;-77
2021/07/13 03:31:54;;;;;;;11.43;10.63;;;18.10;99.90;;;;;;6306214;22;20688;-76
2021/07/13 03:34:22;;;;;;;11.00;10.30;;;18.10;99.90;;;;;;6306552;22;20168;-78
2021/07/13 03:36:49;;;;;;;10.80;10.00;;;18.10;99.90;;;;;;6306569;22;20228;-78
2021/07/13 03:39:17;;;;;;;10.70;10.00;;;18.10;99.90;;;;;;6278370;22;20226;-77
2021/07/13 03:41:45;;;;;;;11.70;10.80;;;18.10;99.90;;;;;;6306458;22;20190;-76
2021/07/13 03:44:14;;;;;;;12.10;11.33;;;18.10;99.90;;;;;;6306029;22;20184;-77
2021/07/13 03:46:41;;;;;;;11.40;10.60;;;18.10;99.90;;;;;;6279158;22;20182;-77
2021/07/13 03:49:09;;;;;;;11.60;10.80;;;18.10;99.90;;;;;;6278990;22;20239;-77
2021/07/13 03:51:39;;;;;;;12.07;11.07;;;18.20;99.90;;;;;;6278861;22;20699;-77
2021/07/13 03:54:07;;;;;;;11.50;10.73;;;18.10;99.90;;;;;;6279051;22;20272;-77
2021/07/13 03:56:35;;;;;;;11.30;10.60;;;18.10;99.90;;;;;;6306367;22;20167;-77
2021/07/13 03:59:03;;;;;;;5.00;4.67;;;18.10;99.90;;;;;;6278684;22;20186;-77
2021/07/13 04:01:30;;;;;;;4.53;3.83;;;18.10;99.90;;;;;;6303986;22;20195;-79
2021/07/13 04:03:58;;;;;;;4.10;3.70;;;18.10;99.90;;;;;;6305752;22;20199;-79
2021/07/13 04:06:24;;;;;;;5.73;3.70;;;18.10;99.90;;;;;;6306824;22;20167;-78
2021/07/13 04:08:51;;;;;;;4.23;3.67;;;18.10;99.90;;;;;;6279638;22;20537;-78
2021/07/13 04:11:18;;;;;;;3.80;3.50;;;18.10;99.90;;;;;;6307603;22;20187;-78
2021/07/13 04:13:45;;;;;;;3.97;3.17;;;18.10;99.90;;;;;;6307299;22;20162;-79
2021/07/13 04:16:13;;;;;;;3.67;3.37;;;18.10;99.90;;;;;;6279965;22;20621;-79
2021/07/13 04:18:41;;;;;;;3.43;3.13;;;18.10;99.90;;;;;;6306492;22;20168;-78
2021/07/13 04:21:08;;;;;;;3.93;3.57;;;18.10;99.90;;;;;;6305656;22;20201;-78
2021/07/13 04:23:35;;;;;;;4.33;3.97;;;18.10;99.90;;;;;;6306923;22;20665;-79
2021/07/13 04:26:03;;;;;;;6.00;5.57;;;18.10;99.90;;;;;;6279657;22;20173;-79
2021/07/13 04:28:31;;;;;;;7.50;6.47;;;18.00;99.90;;;;;;6306573;22;20228;-78
2021/07/13 04:30:58;;;;;;;10.70;10.00;;;18.00;99.90;;;;;;6280079;22;20175;-79
2021/07/13 04:33:26;;;;;;;11.33;10.63;;;18.00;99.90;;;;;;6279597;22;20180;-78
2021/07/13 04:35:53;;;;;;;11.37;10.57;;;18.10;99.90;;;;;;6307033;22;20217;-78
2021/07/13 04:38:20;;;;;;;11.00;10.40;;;18.20;99.90;;;;;;6279214;22;20176;-78
2021/07/13 04:40:48;;;;;;;10.97;10.27;;;18.20;99.90;;;;;;6306023;22;20174;-79
2021/07/13 04:43:15;;;;;;;12.07;11.20;;;18.30;99.90;;;;;;6279601;22;20648;-78
2021/07/13 04:45:42;;;;;;;10.83;10.13;;;18.30;99.90;;;;;;6279100;22;20193;-79
2021/07/13 04:48:09;;;;;;;9.97;9.30;;;18.40;99.90;;;;;;6279333;22;20199;-79
2021/07/13 04:50:37;;;;;;;9.37;8.77;;;18.40;99.90;;;;;;6306867;22;20168;-79
2021/07/13 04:53:04;;;;;;;9.90;9.30;;;18.50;99.90;;;;;;6306697;22;20190;-78
2021/07/13 04:55:31;;;;;;;10.43;9.83;;;18.50;99.90;;;;;;6279116;22;20169;-79
2021/07/13 04:57:59;;;;;;;11.17;10.50;;;18.50;99.90;;;;;;6279389;22;20181;-78
2021/07/13 05:00:26;;;;;;;3.40;3.10;;;18.60;99.90;;;;;;6279597;22;20169;-78
2021/07/13 05:02:52;;;;;;;5.13;4.67;;;18.60;99.90;;;;;;6279075;22;20250;-78
2021/07/13 05:05:19;;;;;;;3.60;3.30;;;18.70;99.90;;;;;;6279502;22;20659;-79
2021/07/13 05:07:48;;;;;;;4.40;3.37;;;18.70;99.90;;;;;;6279006;22;20205;-78
2021/07/13 05:10:17;;;;;;;11.00;10.27;;;18.70;99.90;;;;;;6279120;22;20181;-79
2021/07/13 05:12:44;;;;;;;8.50;7.90;;;18.60;99.90;;;;;;6278194;22;20193;-79
2021/07/13 05:15:13;;;;;;;5.73;3.83;;;18.60;99.90;;;;;;6278758;22;20217;-78
2021/07/13 05:17:40;;;;;;;4.63;3.37;;;18.60;99.90;;;;;;6278710;22;20608;-79
2021/07/13 05:20:10;;;;;;;5.43;3.30;;;18.50;99.90;;;;;;6278331;22;20177;-78
2021/07/13 05:22:37;;;;;;;3.97;3.37;;;18.40;99.90;;;;;;6278859;22;20224;-80
2021/07/13 05:25:07;;;;;;;3.40;3.10;;;18.40;99.90;;;;;;6308357;22;20188;-79
2021/07/13 05:27:38;;;;;;;4.17;3.70;;;18.40;99.90;;;;;;6279529;22;20176;-76
2021/07/13 05:30:06;;;;;;;5.03;4.13;;;18.40;99.90;;;;;;6306714;22;20613;-78
2021/07/13 05:32:33;;;;;;;11.07;10.27;;;18.40;99.90;;;;;;6304875;22;20195;-73
2021/07/13 05:35:00;;;;;;;10.70;9.90;;;18.40;99.90;;;;;;6278660;22;20710;-74
2021/07/13 05:37:26;;;;;;;10.40;9.60;;;18.30;99.90;;;;;;6305172;22;20697;-73
2021/07/13 05:39:53;;;;;;;10.83;10.10;;;18.30;99.90;;;;;;6278247;22;20182;-73
2021/07/13 05:42:22;;;;;;;12.43;11.53;;;18.40;99.90;;;;;;6278176;22;20255;-73
2021/07/13 05:44:49;;;;;;;11.97;11.27;;;18.40;99.90;;;;;;6277991;22;20216;-73
2021/07/13 05:47:16;;;;;;;11.00;10.23;;;18.40;99.90;;;;;;6305266;22;20172;-73
2021/07/13 05:49:43;;;;;;;10.90;10.20;;;18.40;99.90;;;;;;6278290;22;20646;-76
2021/07/13 05:52:10;;;;;;;11.60;10.90;;;18.40;99.90;;;;;;6278196;22;20658;-78
2021/07/13 05:54:37;;;;;;;11.90;11.03;;;18.40;99.90;;;;;;6278122;22;20173;-77
2021/07/13 05:57:04;;;;;;;11.03;10.33;;;18.50;99.90;;;;;;6278156;22;20537;-77
2021/07/13 05:59:32;;;;;;;11.47;10.67;;;18.60;99.90;;;;;;6305944;22;20165;-77
2021/07/13 06:01:59;;;;;;;9.40;8.70;;;18.60;99.90;;;;;;6305328;22;20231;-77
2021/07/13 06:04:26;;;;;;;10.07;9.20;;;18.60;99.90;;;;;;6278361;22;20245;-78
2021/07/13 06:06:53;;;;;;;8.00;7.50;;;18.70;99.90;;;;;;6280473;22;20172;-78
2021/07/13 06:09:20;;;;;;;8.17;7.47;;;18.80;99.90;;;;;;6308401;22;20164;-78
2021/07/13 06:11:47;;;;;;;5.97;5.43;;;18.80;99.90;;;;;;6309600;22;20575;-77
2021/07/13 06:14:14;;;;;;;5.03;4.50;;;18.90;99.90;;;;;;6278888;22;20239;-77
2021/07/13 06:16:42;;;;;;;5.27;4.10;;;19.00;99.90;;;;;;6278690;22;20177;-77
2021/07/13 06:19:08;;;;;;;5.17;4.00;;;19.10;99.90;;;;;;6277575;22;20173;-78
2021/07/13 06:21:35;;;;;;;8.30;7.80;;;19.10;99.90;;;;;;6306226;22;20664;-77
2021/07/13 06:24:02;;;;;;;7.40;6.80;;;19.10;99.90;;;;;;6278954;22;20191;-78
2021/07/13 06:26:29;;;;;;;6.97;6.30;;;19.20;99.90;;;;;;6282635;22;20188;-77
2021/07/13 06:28:56;;;;;;;8.47;7.87;;;19.10;99.90;;;;;;6312590;22;20172;-77
2021/07/13 06:31:23;;;;;;;8.70;8.10;;;19.10;99.90;;;;;;6312167;22;20644;-77
2021/07/13 06:33:51;;;;;;;8.30;7.67;;;19.20;99.90;;;;;;6283533;22;20173;-78
2021/07/13 06:36:18;;;;;;;10.53;9.93;;;19.20;99.90;;;;;;6280667;22;20176;-77
2021/07/13 06:38:45;;;;;;;15.17;14.20;;;19.10;99.90;;;;;;6279913;22;20173;-78
2021/07/13 06:41:12;;;;;;;8.70;8.10;;;19.00;99.90;;;;;;6307588;22;20521;-77
2021/07/13 06:43:38;;;;;;;5.20;4.50;;;18.90;99.90;;;;;;6307271;22;20173;-77
2021/07/13 06:46:05;;;;;;;4.70;4.30;;;18.90;99.90;;;;;;6307209;22;20272;-77
2021/07/13 06:48:32;;;;;;;4.40;4.00;;;18.80;99.90;;;;;;6279643;22;20173;-77
2021/07/13 06:51:00;;;;;;;5.80;5.27;;;18.70;99.90;;;;;;6279421;22;20168;-77
2021/07/13 06:53:27;;;;;;;11.27;10.57;;;18.70;99.90;;;;;;6306916;22;20179;-77
2021/07/13 06:55:54;;;;;;;10.70;9.90;;;18.60;99.90;;;;;;6279297;22;20173;-77
2021/07/13 06:58:21;;;;;;;12.10;11.03;;;18.60;99.90;;;;;;6306753;22;20166;-77
2021/07/13 07:00:48;;;;;;;8.50;7.90;;;18.60;99.90;;;;;;6279436;22;20260;-79
2021/07/13 07:03:16;;;;;;;9.80;9.10;;;18.60;99.90;;;;;;6307046;22;20180;-77
2021/07/13 07:05:43;;;;;;;10.70;10.00;;;18.60;99.90;;;;;;6279097;22;20193;-77
2021/07/13 07:08:11;;;;;;;3.80;3.50;;;18.60;99.90;;;;;;6278812;22;20169;-77
2021/07/13 07:10:38;;;;;;;4.17;3.77;;;18.60;99.90;;;;;;6279152;22;20689;-76
2021/07/13 07:13:06;;;;;;;4.37;3.53;;;18.70;99.90;;;;;;6279274;22;20235;-77
2021/07/13 07:15:33;;;;;;;8.23;7.63;;;18.60;99.90;;;;;;6307670;22;20166;-79
2021/07/13 07:18:00;;;;;;;10.70;10.00;;;18.60;99.90;;;;;;6281334;22;20548;-77
2021/07/13 07:20:29;;;;;;;9.03;8.43;;;18.60;99.90;;;;;;6308115;22;20164;-78
2021/07/13 07:22:57;;;;;;;10.37;9.67;;;18.50;99.90;;;;;;6307979;22;20208;-77
2021/07/13 07:25:27;;;;;;;10.57;9.67;;;18.50;99.90;;;;;;6280724;22;20194;-77
2021/07/13 07:27:56;;;;;;;12.17;11.47;;;18.50;99.90;;;;;;6307237;22;20191;-78
2021/07/13 07:30:25;;;;;;;11.80;11.10;;;18.50;99.90;;;;;;6280673;22;20263;-78
2021/07/13 07:32:52;;;;;;;3.90;3.60;;;18.50;99.90;;;;;;6280648;22;20675;-78
2021/07/13 07:35:19;;;;;;;6.03;5.63;;;18.50;99.90;;;;;;6305286;22;20172;-77
2021/07/13 07:37:47;;;;;;;12.30;11.40;;;18.50;99.90;;;;;;6280604;22;20509;-78
2021/07/13 07:40:17;;;;;;;9.90;9.20;;;18.50;99.90;;;;;;6280891;22;20205;-78
2021/07/13 07:42:47;;;;;;;9.57;8.87;;;18.50;99.90;;;;;;6308680;22;20191;-79
2021/07/13 07:45:14;;;;;;;7.77;7.27;;;18.50;99.90;;;;;;6280276;22;20276;-78
2021/07/13 07:47:42;;;;;;;8.43;7.83;;;18.50;99.90;;;;;;6279825;22;20200;-78
2021/07/13 07:50:11;;;;;;;10.87;10.13;;;18.50;99.90;;;;;;6308593;22;20247;-79
2021/07/13 07:52:38;;;;;;;12.00;11.20;;;18.50;99.90;;;;;;6309304;22;20191;-79
2021/07/13 07:55:07;;;;;;;9.83;9.13;;;18.60;99.90;;;;;;6281766;22;20195;-79
2021/07/13 07:57:34;;;;;;;9.60;9.00;;;18.60;99.90;;;;;;6280963;22;20176;-79
2021/07/13 08:00:06;;;;;;;10.47;9.80;;;18.60;99.90;;;;;;6282038;22;20562;-79
2021/07/13 08:02:39;;;;;;;9.20;8.53;;;18.60;99.90;;;;;;6309099;22;20211;-79
2021/07/13 08:05:07;;;;;;;8.50;7.90;;;18.60;99.90;;;;;;6281015;22;20192;-79
2021/07/13 08:07:34;;;;;;;6.90;6.50;;;18.70;99.90;;;;;;6280938;22;20180;-78
2021/07/13 08:10:01;;;;;;;11.67;10.97;;;18.80;99.90;;;;;;6279516;22;20188;-78
2021/07/13 08:12:28;;;;;;;10.10;9.50;;;18.90;99.90;;;;;;6308989;22;20192;-79
2021/07/13 08:14:55;;;;;;;9.27;8.77;;;18.90;99.90;;;;;;6281324;22;20173;-79
2021/07/13 08:17:23;;;;;;;10.57;9.80;;;18.90;99.90;;;;;;6280652;22;20170;-78
2021/07/13 08:19:50;;;;;;;10.87;10.13;;;18.90;99.90;;;;;;6281036;22;20181;-78
2021/07/13 08:22:17;;;;;;;10.97;10.27;;;18.90;99.90;;;;;;6308916;22;20524;-79
2021/07/13 08:24:44;;;;;;;11.20;10.37;;;19.00;99.90;;;;;;6307906;22;20168;-78
2021/07/13 08:27:11;;;;;;;11.10;10.47;;;18.90;99.90;;;;;;6308480;22;20241;-79
2021/07/13 08:29:38;;;;;;;10.63;10.03;;;18.90;99.90;;;;;;6280123;22;20177;-79
2021/07/13 08:32:06;;;;;;;10.90;10.30;;;18.80;99.90;;;;;;6306600;22;20181;-79
2021/07/13 08:34:35;;;;;;;11.30;10.40;;;18.80;99.90;;;;;;6306502;22;20165;-78
2021/07/13 08:37:03;;;;;;;11.23;10.37;;;18.80;99.90;;;;;;6307533;22;20248;-78
2021/07/13 08:39:30;;;;;;;10.50;9.90;;;18.70;99.90;;;;;;6279238;22;20169;-79
2021/07/13 08:41:58;;;;;;;6.60;6.10;;;18.70;99.90;;;;;;6279915;22;20197;-78
2021/07/13 08:44:25;;;;;;;8.00;7.50;;;18.60;99.90;;;;;;6281390;22;20173;-79
2021/07/13 08:46:52;;;;;;;9.17;8.60;;;18.60;99.90;;;;;;6308843;22;20181;-78
2021/07/13 08:49:21;;;;;;;9.50;8.90;;;18.60;99.90;;;;;;6307429;22;20165;-79
2021/07/13 08:51:49;;;;;;;8.13;7.60;;;18.60;99.90;;;;;;6280855;22;20189;-75
2021/07/13 08:54:16;;;;;;;9.70;8.97;;;18.60;99.90;;;;;;6280934;22;20180;-78
2021/07/13 08:56:43;;;;;;;10.70;10.00;;;18.60;99.90;;;;;;6307775;22;20495;-78
2021/07/13 08:59:09;;;;;;;8.37;7.80;;;18.60;99.90;;;;;;6307169;22;20619;-79
2021/07/13 09:01:37;;;;;;;7.50;6.87;;;18.40;99.90;;;;;;6279648;22;20199;-78
2021/07/13 09:04:06;;;;;;;7.40;6.90;;;18.30;99.90;;;;;;6307342;22;20168;-78
2021/07/13 09:06:53;;;;;;;11.70;11.10;;;18.20;99.90;;;;;;6308639;22;20183;-80
2021/07/13 09:09:24;;;;;;;4.50;3.37;;;18.10;99.90;;;;;;6306026;22;20176;-78
2021/07/13 09:12:11;;;;;;;3.83;3.67;;;18.10;99.90;;;;;;6306777;22;20539;-78
2021/07/13 09:14:55;;;;;;;7.40;7.00;;;18.00;99.90;;;;;;6307335;22;20155;-78
2021/07/13 09:17:37;;;;;;;7.07;6.47;;;17.90;99.90;;;;;;6306768;22;20174;-78
2021/07/13 09:20:12;;;;;;;6.03;5.70;;;17.80;99.90;;;;;;6279948;22;20161;-78
2021/07/13 09:22:51;;;;;;;6.20;5.80;;;17.50;99.90;;;;;;6279550;22;20589;-78
2021/07/13 09:25:29;;;;;;;10.03;9.53;;;17.40;99.90;;;;;;6279646;22;20172;-78
2021/07/13 09:28:11;;;;;;;8.30;7.90;;;17.20;99.90;;;;;;6279457;22;20176;-78
2021/07/13 09:30:39;;;;;;;11.93;11.17;;;17.10;99.90;;;;;;6279649;22;20193;-78
2021/07/13 09:33:17;;;;;;;11.70;11.10;;;17.10;99.90;;;;;;6306855;22;20190;-79
2021/07/13 09:36:07;;;;;;;12.00;11.40;;;17.00;99.90;;;;;;6306706;22;20459;-79
2021/07/13 09:38:37;;;;;;;12.20;11.33;;;16.90;99.90;;;;;;6278930;22;20204;-79
2021/07/13 09:41:08;;;;;;;11.50;10.90;;;16.90;99.90;;;;;;6280016;22;20209;-79
2021/07/13 09:43:51;;;;;;;11.67;10.97;;;16.90;99.90;;;;;;6279935;22;20197;-79
2021/07/13 09:46:25;;;;;;;11.50;10.90;;;16.80;99.90;;;;;;6307326;22;20258;-79
2021/07/13 09:49:14;;;;;;;11.70;11.10;;;16.80;99.90;;;;;;6280033;22;20176;-79
2021/07/13 09:51:42;;;;;;;11.77;11.17;;;16.80;99.90;;;;;;6280057;22;20196;-79
2021/07/13 09:54:38;;;;;;;11.80;11.20;;;16.80;99.90;;;;;;6280443;22;20225;-79
2021/07/13 09:57:07;;;;;;;12.20;11.50;;;16.70;99.90;;;;;;6279127;22;20506;-79
2021/07/13 09:59:34;;;;;;;12.43;11.73;;;16.70;99.90;;;;;;6307388;22;20166;-78
2021/07/13 10:02:03;;;;;;;11.97;11.37;;;16.70;99.90;;;;;;6309706;22;20188;-78
2021/07/13 10:04:31;;;;;;;11.87;11.27;;;16.70;99.90;;;;;;6282250;22;20181;-78
2021/07/13 10:07:02;;;;;;;11.80;11.10;;;16.60;99.90;;;;;;6281584;22;20185;-79
2021/07/13 10:09:34;;;;;;;11.90;11.30;;;16.70;99.90;;;;;;6282048;22;20170;-78
2021/07/13 10:12:03;;;;;;;11.73;11.03;;;16.80;99.90;;;;;;6281654;22;20189;-78
2021/07/13 10:14:31;;;;;;;11.63;10.93;;;16.90;99.90;;;;;;6309436;22;20773;-78
2021/07/13 10:16:59;;;;;;;10.93;10.33;;;16.90;99.90;;;;;;6309215;22;20550;-78
2021/07/13 10:19:27;;;;;;;11.00;10.40;;;16.80;99.90;;;;;;6282047;22;20172;-79
2021/07/13 10:21:54;;;;;;;11.00;10.40;;;16.80;99.90;;;;;;6308775;22;20187;-77
2021/07/13 10:24:25;;;;;;;10.97;10.37;;;16.70;99.90;;;;;;6307532;22;20211;-77
2021/07/13 10:26:54;;;;;;;11.20;10.60;;;16.70;99.90;;;;;;6279611;22;20218;-77
2021/07/13 10:29:42;;;;;;;10.80;10.20;;;16.70;99.90;;;;;;6279703;22;20175;-78
2021/07/13 10:32:28;;;;;;;10.80;10.30;;;16.80;99.90;;;;;;6307486;22;20184;-77
2021/07/13 10:34:56;;;;;;;10.73;10.13;;;16.80;99.90;;;;;;6306582;22;20160;-76
2021/07/13 10:37:24;;;;;;;11.17;10.47;;;16.70;99.90;;;;;;6279852;22;20176;-78
2021/07/13 10:39:51;;;;;;;11.10;10.50;;;16.70;99.90;;;;;;6279926;22;20266;-76
2021/07/13 10:42:47;;;;;;;11.07;10.47;;;16.60;99.90;;;;;;6306920;22;20185;-76
2021/07/13 10:45:17;;;;;;;10.80;10.30;;;16.70;99.90;;;;;;6307064;22;20186;-77
2021/07/13 10:48:07;;;;;;;11.27;10.53;;;16.90;99.90;;;;;;6306618;22;20188;-77
2021/07/13 10:50:47;;;;;;;11.40;10.80;;;17.10;99.90;;;;;;6280197;22;20167;-76
2021/07/13 10:53:32;;;;;;;4.07;3.30;;;17.30;99.90;;;;;;6279683;22;20223;-78
2021/07/13 10:56:07;;;;;;;3.80;3.60;;;17.60;99.90;;;;;;6276592;22;20167;-76
2021/07/13 10:58:55;;;;;;;2.70;2.50;;;18.20;99.90;;;;;;6279065;22;20176;-77
2021/07/13 11:01:28;;;;;;;7.37;6.97;;;18.60;99.90;;;;;;6279460;22;20663;-76
2021/07/13 11:04:06;;;;;;;7.60;7.10;;;18.90;99.90;;;;;;6279177;22;20200;-76
2021/07/13 11:06:57;;;;;;;9.00;8.50;;;18.80;99.90;;;;;;6279478;22;20185;-76
2021/07/13 11:09:38;;;;;;;5.43;5.13;;;18.70;99.90;;;;;;6279863;22;20180;-76
2021/07/13 11:12:17;;;;;;;2.30;2.20;;;18.70;99.90;;;;;;6305937;22;20530;-76
2021/07/13 11:14:58;;;;;;;6.40;6.10;;;18.80;99.90;;;;;;6306789;22;20152;-76
2021/07/13 11:17:29;;;;;;;6.67;6.27;;;18.90;99.90;;;;;;6306552;22;20166;-77
2021/07/13 11:20:02;;;;;;;7.57;7.17;;;18.80;99.90;;;;;;6306693;22;20225;-76
2021/07/13 11:22:30;;;;;;;5.67;5.37;;;18.50;99.90;;;;;;6278915;22;20193;-77
2021/07/13 11:24:59;;;;;;;7.27;6.90;;;18.50;99.90;;;;;;6279215;22;20173;-77
2021/07/13 11:27:26;;;;;;;5.13;4.93;;;18.40;99.90;;;;;;6306105;22;20177;-76
2021/07/13 11:29:55;;;;;;;2.20;2.10;;;18.40;99.90;;;;;;6306136;22;20166;-77
2021/07/13 11:32:22;;;;;;;2.37;2.27;;;18.30;99.90;;;;;;6279113;22;20267;-76
2021/07/13 11:34:51;;;;;;;2.30;2.20;;;18.30;99.90;;;;;;6278128;22;20180;-76
2021/07/13 11:37:19;;;;;;;2.40;2.30;;;18.20;99.90;;;;;;6279589;22;20170;-78
2021/07/13 11:39:47;;;;;;;4.97;4.70;;;18.20;99.90;;;;;;6279537;22;20199;-77
2021/07/13 11:42:15;;;;;;;7.67;7.27;;;18.20;99.90;;;;;;6279368;22;20272;-77
2021/07/13 11:44:44;;;;;;;2.40;2.20;;;18.20;99.90;;;;;;6279098;22;20172;-77
2021/07/13 11:47:12;;;;;;;2.30;2.20;;;18.40;99.90;;;;;;6278901;22;20541;-78
2021/07/13 11:49:39;;;;;;;2.20;2.10;;;18.60;99.90;;;;;;6306574;22;20161;-78
2021/07/13 11:52:09;;;;;;;2.30;2.20;;;18.70;99.90;;;;;;6306048;22;20242;-78
2021/07/13 11:54:38;;;;;;;2.00;2.00;;;18.80;99.90;;;;;;6279036;22;20662;-77
2021/07/13 11:57:07;;;;;;;2.30;2.20;;;19.00;99.90;;;;;;6306185;22;20173;-78
2021/07/13 11:59:36;;;;;;;2.30;2.20;;;19.10;99.90;;;;;;6317148;22;20183;-78
2021/07/13 12:02:05;;;;;;;6.40;6.10;;;19.20;99.90;;;;;;6300385;22;20221;-77
2021/07/13 12:04:37;;;;;;;2.83;2.73;;;19.30;99.90;;;;;;6325780;22;20400;-78
2021/07/13 12:07:05;;;;;;;3.23;3.13;;;19.20;99.90;;;;;;6309375;22;20175;-77
2021/07/13 12:09:35;;;;;;;9.30;8.80;;;19.20;99.90;;;;;;6279792;22;20173;-78
2021/07/13 12:12:06;;;;;;;9.00;8.50;;;19.20;99.90;;;;;;6306410;22;20182;-77
2021/07/13 12:14:34;;;;;;;2.10;2.00;;;19.30;99.90;;;;;;6278565;22;20180;-77
2021/07/13 12:17:02;;;;;;;8.97;8.47;;;19.30;99.90;;;;;;6288824;22;20628;-77
2021/07/13 12:19:32;;;;;;;8.83;8.40;;;19.40;99.90;;;;;;6299431;22;20175;-77
2021/07/13 12:22:01;;;;;;;3.87;3.67;;;19.40;99.90;;;;;;6326033;22;20185;-77
2021/07/13 12:24:35;;;;;;;2.20;2.10;;;19.30;99.90;;;;;;6321505;22;20702;-77
2021/07/13 12:27:05;;;;;;;2.90;2.80;;;19.30;99.90;;;;;;6280626;22;20188;-79
2021/07/13 12:29:38;;;;;;;3.50;3.37;;;19.30;99.90;;;;;;6280682;22;20257;-79
2021/07/13 12:32:08;;;;;;;4.30;4.10;;;19.40;99.90;;;;;;6307666;22;20183;-80
2021/07/13 12:34:41;;;;;;;4.70;4.50;;;19.40;99.90;;;;;;6279570;22;20580;-77
2021/07/13 12:37:14;;;;;;;9.83;9.23;;;19.50;99.90;;;;;;6279714;22;20159;-77
2021/07/13 12:39:45;;;;;;;9.40;8.90;;;19.70;99.90;;;;;;6281329;22;20175;-77
2021/07/13 12:42:21;;;;;;;6.37;6.07;;;19.70;99.90;;;;;;6309560;22;20675;-79
2021/07/13 12:44:52;;;;;;;3.27;3.17;;;19.80;99.90;;;;;;6280605;22;20497;-78
2021/07/13 12:47:26;;;;;;;4.57;4.30;;;19.80;99.90;;;;;;6281124;22;20193;-79
2021/07/13 12:50:02;;;;;;;2.40;2.20;;;19.70;99.90;;;;;;6309593;22;20203;-78
2021/07/13 12:52:33;;;;;;;2.27;2.17;;;19.60;99.90;;;;;;6283341;22;20190;-78
2021/07/13 12:55:05;;;;;;;2.13;2.03;;;19.50;99.90;;;;;;6282725;22;20170;-78